x

West Oregon - 275nm West Of Coos Bay, Or (46002) Wave Buoy

5:50am - Thu 11th Feb 2016 All times are UTC.

  • Sig Wave height 11.2ft
  • Swell Direction
  • Peak Period 21s
  • Average Period 9s
  • Wind
    18mph, 22mph gusts
  • Sea Temp 53°f
  • Air Temp 54°f
  • Sea Pressure 1016.3mb

More Historic Weather Station data

Upgrade to MSW Pro to gain access to the past 30 days of data for over 8000 Wavebouys and Weather Stations around the globe.

Join Pro

Comparision Forecast

View Surf forecast
   
Thu 02/11 5:50am 11ft 21s 9s 18 22 mph 1016.3mb 53f 54f
4:50am 11.5ft 21s 9s 18 22 mph 1016.4mb 53f 54f
3:50am 11.5ft 21s 9s 20 25 mph 1017mb 53f 54f
2:50am 10ft 21s 8s 16 20 mph 1017.4mb 53f 54f
1:50am 10.5ft 11s 8s 13 16 mph 1017.7mb 53f 54f
12:50am 10.5ft 10s 8s 13 16 mph 1018.1mb 53f 54f
Wed 02/10 11:50pm 9.5ft 10s 8s 11 13 mph 1018.8mb 53f 54f
10:50pm 12ft 10s 8s 13 18 mph 1018.9mb 53f 54f
9:50pm 10.5ft 10s 8s 16 18 mph 1019.2mb 53f 54f
8:50pm 12ft 10s 8s 16 20 mph 1019.8mb 53f 54f
7:50pm 11.5ft 10s 8s 13 16 mph 1019.8mb 53f 54f
6:50pm 11.5ft 11s 8s 16 20 mph 1019.7mb 53f 55f
5:50pm 12ft 10s 8s 20 25 mph 1019mb 53f 55f
4:50pm 11ft 9s 7s 16 20 mph 1017.4mb 53f 54f
3:50pm 12ft 9s 8s 16 20 mph 1016.6mb 53f 53f
2:50pm 11ft 9s 7s 16 20 mph 1015.4mb 53f 53f
1:50pm 12ft 10s 7s 20 27 mph 1014.5mb 53f 53f
12:50pm 11ft 10s 7s 25 31 mph 1012.1mb 53f 54f
11:50am 11ft 9s 7s 31 43 mph 1010.7mb 53f 56f
10:50am 10.5ft 13s 7s 27 36 mph 1010.1mb 53f 55f
9:50am 10ft 11s 7s 27 34 mph 1010.5mb 53f 55f
8:50am 10ft 12s 7s 25 31 mph 1010.9mb 53f 55f
7:50am 9ft 11s 7s 27 31 mph 1010.4mb 53f 55f
6:50am 9ft 11s 7s 25 29 mph 1011.3mb 53f 55f
5:50am 9ft 11s 7s 22 27 mph 1012mb 53f 55f
4:50am 10ft 12s 7s 20 27 mph 1012.8mb 53f 55f
3:50am 8.5ft 10s 7s 25 27 mph 1013.5mb 53f 55f
2:50am 9ft 10s 7s 22 27 mph 1012.8mb 53f 55f
1:50am 9ft 11s 7s 20 22 mph 1012.7mb 53f 54f
12:50am 9ft 10s 7s 18 22 mph 1013.1mb 53f 54f
Tue 02/09 11:50pm 10ft 11s 8s 20 25 mph 1012.6mb 53f 55f
10:50pm 9ft 11s 7s 22 25 mph 1012.5mb 53f 55f
9:50pm 9ft 12s 8s 18 22 mph 1012.4mb 53f 54f
8:50pm 9ft 10s 7s 16 20 mph 1013.5mb 53f 54f
7:50pm 9ft 13s 7s 13 16 mph 1013.7mb 53f 54f
6:50pm 9ft 13s 7s 11 13 mph 1013.9mb 53f 53f
5:50pm 9.5ft 12s 8s 18 20 mph 1013.8mb 53f 54f
4:50pm 9ft 14s 8s 22 29 mph 1012.1mb 53f 55f
3:50pm 9ft 14s 8s 18 20 mph 1011.5mb 53f 54f
2:50pm 9ft 13s 8s 16 20 mph 1011.5mb 53f 54f
1:50pm 9ft 14s 7s 16 18 mph 1012mb 53f 54f
12:50pm 9ft 14s 7s 16 20 mph 1012.1mb 53f 54f
11:50am 9ft 13s 7s 22 27 mph 1012.4mb 53f 53f
10:50am 9.5ft 12s 7s 25 31 mph 1011.6mb 53f 53f
9:50am 9.5ft 13s 8s 22 29 mph 1011.3mb 53f 53f
8:50am 10.5ft 14s 8s 20 25 mph 1011.4mb 53f 54f
7:50am 9ft 13s 8s 20 25 mph 1011.9mb 53f 54f
6:50am 11.5ft 14s 9s 18 20 mph 1012.4mb 53f 54f
5:50am 11ft 14s 10s 18 22 mph 1012.8mb 53f 54f
4:50am 11ft 14s 10s 13 16 mph 1013.2mb 53f 54f
3:50am 11ft 13s 10s 11 16 mph 1014.1mb 53f 54f
2:50am 11.5ft 14s 11s 9 11 mph 1014.9mb 54f 54f
1:50am 10.5ft 14s 10s 9 11 mph 1015.4mb 54f 54f
12:50am 11ft 14s 11s 11 13 mph 1015.8mb 54f 54f
Mon 02/08 11:50pm 9.5ft 15s 10s 11 13 mph 1016.1mb 54f 54f
10:50pm 10ft 15s 10s 13 18 mph 1016.7mb 54f 54f
9:50pm 11ft 14s 10s 9 11 mph 1017.9mb 54f 54f
8:50pm 10ft 14s 10s 9 13 mph 1019.1mb 54f 55f
7:50pm 11ft 15s 10s 11 16 mph 1020.6mb 53f 54f
6:50pm 11ft 15s 10s 9 13 mph 1021.5mb 53f 53f
5:50pm 12ft 15s 11s 9 13 mph 1022mb 53f 53f
4:50pm 12ft 14s 11s 7 11 mph 1022.5mb 53f 53f
3:50pm 13ft 15s 10s 7 13 mph 1023mb 53f 52f
2:50pm 13ft 16s 11s 9 13 mph 1023.2mb 53f 51f
1:50pm 12ft 12s 10s 9 13 mph 1023.5mb 53f 51f
12:50pm 12.5ft 14s 11s 9 13 mph 1023.4mb 53f 51f
11:50am 13.5ft 15s 11s 9 13 mph 1023.8mb 53f 51f
10:50am 12ft 14s 11s 9 16 mph 1024.3mb 53f 51f
9:50am 13ft 16s 11s 7 11 mph 1024.7mb 53f 51f
8:50am 12ft 15s 11s 9 13 mph 1025.3mb 53f 51f
7:50am 13ft 16s 11s 11 16 mph 1025.6mb 53f 51f
6:50am 14ft 16s 12s 9 13 mph 1025.9mb 53f 52f
5:50am 10.5ft 17s 10s 9 13 mph 1026.5mb 53f 52f
4:50am 9.5ft 17s 10s 11 13 mph 1026.6mb 53f 53f
3:50am 9.5ft 17s 10s 11 13 mph 1026.7mb 53f 53f
2:50am 10ft 19s 10s 11 13 mph 1026.4mb 53f 54f
1:50am 8ft 11s 8s 11 13 mph 1026.1mb 53f 54f
12:50am 7.5ft 19s 8s 9 11 mph 1026.2mb 53f 54f
Sun 02/07 11:50pm 7.5ft 11s 8s 11 16 mph 1025.8mb 53f 55f
10:50pm 7ft 11s 7s 13 16 mph 1025.1mb 53f 55f
9:50pm 7ft 11s 7s 13 18 mph 1025.6mb 53f 55f
8:50pm 6.5ft 12s 7s 13 18 mph 1026.4mb 53f 54f
7:50pm 7ft 11s 7s 13 16 mph 1026.9mb 53f 54f
6:50pm 7ft 12s 7s 13
mph
1026.8mb 53f 55f
5:50pm 6ft 12s 7s 16 20 mph 1025.8mb 53f 55f
4:50pm 6ft 11s 7s 16 18 mph 1025.5mb 53f 54f
3:50pm 7ft 12s 7s 18 20 mph 1025.3mb 53f 55f
2:50pm 6.5ft 11s 7s 13 16 mph 1025.3mb 53f 54f
1:50pm 7ft 13s 7s 11 13 mph 1025.4mb 53f 54f
12:50pm 7ft 13s 7s 13 16 mph 1025.6mb 53f 54f
11:50am 7ft 12s 7s 13 16 mph 1025.6mb 53f 54f
10:50am 7.5ft 12s 8s 13 18 mph 1025.3mb 53f 54f
9:50am 7.5ft 13s 7s 13 16 mph 1025.4mb 53f 53f
8:50am 7ft 13s 7s 16 18 mph 1025.6mb 53f 53f
7:50am 8ft 14s 8s 13 18 mph 1025.5mb 53f 53f
6:50am 9ft 13s 8s 13 16 mph 1025.2mb 53f 53f